New Baden, Texas
Current Conditions -  °F | °C
As of 9:35 PM on Monday 26 Jan 2015 (Local Time) from KLHB Reporting Station
Clear Clear  
Wind Chill: 47°   Ceiling: Unl
Heat Index: 47°   Visibility: 10mi
Dew Point: 43°   Wind: 0mph
Humidity: 84%   Direction: NA
Pressure: 30.16"   Gusts: NA
Location:  31.05°N, 96.43°W
Report Text: KLHB 270335Z AUTO 00000KT 10SM CLR 09/06 A3016 RMK AO2 T00850060
Loading
Personal Weather Stations






























Interactive Weather Map New forecast layout! Learn more

10-Day Weather Forecast

Advertisements
Track Severe Weather on mobile